Quincy, IL

8:24 AM CDT on April 30, 2017 (GMT -0500)
KB9HGI - N 17th St. | | Change Station

Elev 614 ft 39.95 °N, 91.38 °W | Updated 9 seconds ago

Overcast
Overcast
47.5 °F
Feels Like 48 °F
N
0.0
Wind Variable Wind from ENE
Gusts 2.0 mph

Today
High -- | Low -- °F
--% Chance of Precip.
Yesterday
High -- | Low -- °F
Precip. -- in
Pressure 29.71 in
Visibility 1.5 miles
Clouds Overcast 300 ft
Windchill 48 °F
Dew Point 46 °F
Humidity 95%
Rainfall 0.25 in
Snow Depth Not available.
6:06 AM 7:59 PM
Waxing Crescent, 22% visible
SPECI KUIN 301305Z AUTO 02009KT 1 1/2SM BR OVC003 09/08 A2971 RMK AO2 T00890083
Pressure 29.71 in
Visibility 1.5 miles
Clouds Overcast 300 ft
Windchill 48 °F
Dew Point 46 °F
Humidity 95%
Rainfall 0.25 in
Snow Depth Not available.
6:06 AM 7:59 PM
Waxing Crescent, 22% visible
SPECI KUIN 301305Z AUTO 02009KT 1 1/2SM BR OVC003 09/08 A2971 RMK AO2 T00890083

Get Severe Weather Alerts

Thanks for signing up!

Be on the lookout for a verification email in your inbox.

You'll start receiving the daily forecast at 8 AM.

×

10-Day Weather Forecast

Almanac

Astronomy

Apr. 30, 2017 Rise Set
Actual Time
Civil Twilight
Nautical Twilight
Astronomical Twilight
Moon
Length of Visible Light
Length of Day
Tomorrow will be .
, % of the Moon is Illuminated

Today's Extremes

State Highs State Lows

Community

WunderPhotos

WunderBlog® & News

Nearby

Air Quality

  Air Quality AQ Index Pollutant
Not available.

Snow Depth

Station Depth Elevation

Earthquake Activity

City Distance Mag. Time & Date
Minimum magnitude displayed is 2.5.

Coastal Water Temperatures

Place Temperature

Stations

Nearby Weather Stations

Station Location Temp. Windchill Dew Point Humidity Wind Precip. Elev Updated Type
                   

Watches & Warnings

There are currently no watches in effect.